sensor_id;sensor_type;location;lat;lon;timestamp;temperature;humidity
17703;DHT22;8970;48.104;-1.680;2022-07-19T00:00:15;30.60;1.00
17703;DHT22;8970;48.104;-1.680;2022-07-19T00:00:52;30.60;1.00
17703;DHT22;8970;48.104;-1.680;2022-07-19T00:01:28;30.60;1.00
17703;DHT22;8970;48.104;-1.680;2022-07-19T00:02:05;30.60;1.00
17703;DHT22;8970;48.104;-1.680;2022-07-19T00:02:43;30.60;1.00
17703;DHT22;8970;48.104;-1.680;2022-07-19T00:03:19;30.60;1.00
17703;DHT22;8970;48.104;-1.680;2022-07-19T00:03:57;30.60;1.00
17703;DHT22;8970;48.104;-1.680;2022-07-19T00:05:18;30.60;1.00
17703;DHT22;8970;48.104;-1.680;2022-07-19T00:05:55;30.60;1.00
17703;DHT22;8970;48.104;-1.680;2022-07-19T00:06:31;30.60;1.00
17703;DHT22;8970;48.104;-1.680;2022-07-19T00:07:08;30.60;1.00
17703;DHT22;8970;48.104;-1.680;2022-07-19T00:07:45;30.60;1.00
17703;DHT22;8970;48.104;-1.680;2022-07-19T00:08:22;30.60;1.00
17703;DHT22;8970;48.104;-1.680;2022-07-19T00:08:58;30.50;1.00
17703;DHT22;8970;48.104;-1.680;2022-07-19T00:09:37;30.50;1.00
17703;DHT22;8970;48.104;-1.680;2022-07-19T00:10:16;30.50;1.00
17703;DHT22;8970;48.104;-1.680;2022-07-19T00:10:53;30.50;1.00
17703;DHT22;8970;48.104;-1.680;2022-07-19T00:11:30;30.50;1.00
17703;DHT22;8970;48.104;-1.680;2022-07-19T00:12:48;30.50;1.00
17703;DHT22;8970;48.104;-1.680;2022-07-19T00:13:25;30.50;1.00
17703;DHT22;8970;48.104;-1.680;2022-07-19T00:14:44;30.50;1.00
17703;DHT22;8970;48.104;-1.680;2022-07-19T00:15:21;30.50;1.00
17703;DHT22;8970;48.104;-1.680;2022-07-19T00:15:58;30.50;1.00
17703;DHT22;8970;48.104;-1.680;2022-07-19T00:16:34;30.50;1.00
17703;DHT22;8970;48.104;-1.680;2022-07-19T00:17:53;30.40;1.00
17703;DHT22;8970;48.104;-1.680;2022-07-19T00:18:29;30.40;1.00
17703;DHT22;8970;48.104;-1.680;2022-07-19T00:19:06;30.40;1.00
17703;DHT22;8970;48.104;-1.680;2022-07-19T00:19:43;30.40;1.00
17703;DHT22;8970;48.104;-1.680;2022-07-19T00:20:21;30.40;1.00
17703;DHT22;8970;48.104;-1.680;2022-07-19T00:20:58;30.40;1.00
17703;DHT22;8970;48.104;-1.680;2022-07-19T00:21:34;30.40;1.00
17703;DHT22;8970;48.104;-1.680;2022-07-19T00:22:11;30.40;1.00
17703;DHT22;8970;48.104;-1.680;2022-07-19T00:22:47;30.40;1.00
17703;DHT22;8970;48.104;-1.680;2022-07-19T00:23:24;30.40;1.00
17703;DHT22;8970;48.104;-1.680;2022-07-19T00:24:03;30.40;1.00
17703;DHT22;8970;48.104;-1.680;2022-07-19T00:24:39;30.40;1.00
17703;DHT22;8970;48.104;-1.680;2022-07-19T00:25:16;30.40;1.00
17703;DHT22;8970;48.104;-1.680;2022-07-19T00:25:53;30.40;1.00
17703;DHT22;8970;48.104;-1.680;2022-07-19T00:26:30;30.30;1.00
17703;DHT22;8970;48.104;-1.680;2022-07-19T00:27:06;30.30;1.00
17703;DHT22;8970;48.104;-1.680;2022-07-19T00:27:43;30.30;1.00
17703;DHT22;8970;48.104;-1.680;2022-07-19T00:28:20;30.30;1.00
17703;DHT22;8970;48.104;-1.680;2022-07-19T00:28:56;30.30;1.00
17703;DHT22;8970;48.104;-1.680;2022-07-19T00:29:33;30.30;1.00
17703;DHT22;8970;48.104;-1.680;2022-07-19T00:30:11;30.30;1.00
17703;DHT22;8970;48.104;-1.680;2022-07-19T00:30:48;30.30;1.00
17703;DHT22;8970;48.104;-1.680;2022-07-19T00:31:25;30.30;1.00
17703;DHT22;8970;48.104;-1.680;2022-07-19T00:32:02;30.30;1.00
17703;DHT22;8970;48.104;-1.680;2022-07-19T00:32:39;30.30;1.00
17703;DHT22;8970;48.104;-1.680;2022-07-19T00:33:15;30.30;1.00
17703;DHT22;8970;48.104;-1.680;2022-07-19T00:33:52;30.20;1.00
17703;DHT22;8970;48.104;-1.680;2022-07-19T00:34:30;30.30;1.00
17703;DHT22;8970;48.104;-1.680;2022-07-19T00:35:08;30.20;1.00
17703;DHT22;8970;48.104;-1.680;2022-07-19T00:35:44;30.20;1.00
17703;DHT22;8970;48.104;-1.680;2022-07-19T00:36:21;30.20;1.00
17703;DHT22;8970;48.104;-1.680;2022-07-19T00:36:57;30.20;1.00
17703;DHT22;8970;48.104;-1.680;2022-07-19T00:37:34;30.20;1.00
17703;DHT22;8970;48.104;-1.680;2022-07-19T00:38:54;30.20;1.00
17703;DHT22;8970;48.104;-1.680;2022-07-19T00:39:30;30.20;1.00
17703;DHT22;8970;48.104;-1.680;2022-07-19T00:40:10;30.20;1.00
17703;DHT22;8970;48.104;-1.680;2022-07-19T00:40:46;30.20;1.00
17703;DHT22;8970;48.104;-1.680;2022-07-19T00:41:23;30.20;1.00
17703;DHT22;8970;48.104;-1.680;2022-07-19T00:42:01;30.20;1.00
17703;DHT22;8970;48.104;-1.680;2022-07-19T00:42:38;30.20;1.00
17703;DHT22;8970;48.104;-1.680;2022-07-19T00:43:15;30.20;1.00
17703;DHT22;8970;48.104;-1.680;2022-07-19T00:43:51;30.20;1.00
17703;DHT22;8970;48.104;-1.680;2022-07-19T00:44:28;30.20;1.00
17703;DHT22;8970;48.104;-1.680;2022-07-19T00:45:10;30.20;1.00
17703;DHT22;8970;48.104;-1.680;2022-07-19T00:45:46;30.20;1.00
17703;DHT22;8970;48.104;-1.680;2022-07-19T00:47:06;30.20;1.00
17703;DHT22;8970;48.104;-1.680;2022-07-19T00:47:43;30.10;1.00
17703;DHT22;8970;48.104;-1.680;2022-07-19T00:48:20;30.10;1.00
17703;DHT22;8970;48.104;-1.680;2022-07-19T00:48:56;30.10;1.00
17703;DHT22;8970;48.104;-1.680;2022-07-19T00:49:33;30.10;1.00
17703;DHT22;8970;48.104;-1.680;2022-07-19T00:50:10;30.10;1.00
17703;DHT22;8970;48.104;-1.680;2022-07-19T00:51:29;30.10;1.00
17703;DHT22;8970;48.104;-1.680;2022-07-19T00:52:07;30.10;1.00
17703;DHT22;8970;48.104;-1.680;2022-07-19T00:52:48;30.10;1.00
17703;DHT22;8970;48.104;-1.680;2022-07-19T00:53:25;30.10;1.00
17703;DHT22;8970;48.104;-1.680;2022-07-19T00:54:03;30.10;1.00
17703;DHT22;8970;48.104;-1.680;2022-07-19T00:54:40;30.10;1.00
17703;DHT22;8970;48.104;-1.680;2022-07-19T00:55:19;30.10;1.00
17703;DHT22;8970;48.104;-1.680;2022-07-19T00:55:56;30.10;1.00
17703;DHT22;8970;48.104;-1.680;2022-07-19T00:56:34;30.10;1.00
17703;DHT22;8970;48.104;-1.680;2022-07-19T00:57:11;30.10;1.00
17703;DHT22;8970;48.104;-1.680;2022-07-19T00:57:49;30.10;1.00
17703;DHT22;8970;48.104;-1.680;2022-07-19T00:58:26;30.10;1.00
17703;DHT22;8970;48.104;-1.680;2022-07-19T00:59:05;30.10;1.00
17703;DHT22;8970;48.104;-1.680;2022-07-19T00:59:42;30.00;1.00
17703;DHT22;8970;48.104;-1.680;2022-07-19T01:01:04;30.00;1.00
17703;DHT22;8970;48.104;-1.680;2022-07-19T01:01:41;30.00;1.00
17703;DHT22;8970;48.104;-1.680;2022-07-19T01:02:20;30.00;1.00
17703;DHT22;8970;48.104;-1.680;2022-07-19T01:02:57;30.00;1.00
17703;DHT22;8970;48.104;-1.680;2022-07-19T01:03:39;30.00;1.00
17703;DHT22;8970;48.104;-1.680;2022-07-19T01:04:16;30.00;1.00
17703;DHT22;8970;48.104;-1.680;2022-07-19T01:04:54;30.00;1.00
17703;DHT22;8970;48.104;-1.680;2022-07-19T01:05:30;30.00;1.00
17703;DHT22;8970;48.104;-1.680;2022-07-19T01:06:08;30.00;1.00
17703;DHT22;8970;48.104;-1.680;2022-07-19T01:06:45;30.00;1.00
17703;DHT22;8970;48.104;-1.680;2022-07-19T01:07:21;30.00;1.00
17703;DHT22;8970;48.104;-1.680;2022-07-19T01:07:58;30.00;1.00
17703;DHT22;8970;48.104;-1.680;2022-07-19T01:08:36;30.00;1.00
17703;DHT22;8970;48.104;-1.680;2022-07-19T01:09:13;30.00;1.00
17703;DHT22;8970;48.104;-1.680;2022-07-19T01:10:31;30.00;1.00
17703;DHT22;8970;48.104;-1.680;2022-07-19T01:11:07;30.00;1.00
17703;DHT22;8970;48.104;-1.680;2022-07-19T01:11:44;30.00;1.00
17703;DHT22;8970;48.104;-1.680;2022-07-19T01:12:21;30.00;1.00
17703;DHT22;8970;48.104;-1.680;2022-07-19T01:12:58;30.00;1.00
17703;DHT22;8970;48.104;-1.680;2022-07-19T01:14:16;30.00;1.00
17703;DHT22;8970;48.104;-1.680;2022-07-19T01:14:57;30.00;1.00
17703;DHT22;8970;48.104;-1.680;2022-07-19T01:15:33;30.00;1.00
17703;DHT22;8970;48.104;-1.680;2022-07-19T01:16:10;29.90;1.00
17703;DHT22;8970;48.104;-1.680;2022-07-19T01:16:47;30.00;1.00
17703;DHT22;8970;48.104;-1.680;2022-07-19T01:17:23;30.00;1.00
17703;DHT22;8970;48.104;-1.680;2022-07-19T01:18:01;29.90;1.00
17703;DHT22;8970;48.104;-1.680;2022-07-19T01:18:38;30.00;1.00
17703;DHT22;8970;48.104;-1.680;2022-07-19T01:19:15;29.90;1.00
17703;DHT22;8970;48.104;-1.680;2022-07-19T01:20:34;30.00;1.00
17703;DHT22;8970;48.104;-1.680;2022-07-19T01:21:17;29.90;1.00
17703;DHT22;8970;48.104;-1.680;2022-07-19T01:21:54;29.90;1.00
17703;DHT22;8970;48.104;-1.680;2022-07-19T01:22:31;29.90;1.00
17703;DHT22;8970;48.104;-1.680;2022-07-19T01:23:08;29.90;1.00
17703;DHT22;8970;48.104;-1.680;2022-07-19T01:23:44;29.90;1.00
17703;DHT22;8970;48.104;-1.680;2022-07-19T01:24:21;29.90;1.00
17703;DHT22;8970;48.104;-1.680;2022-07-19T01:24:58;29.90;1.00
17703;DHT22;8970;48.104;-1.680;2022-07-19T01:25:36;29.90;1.00
17703;DHT22;8970;48.104;-1.680;2022-07-19T01:26:13;29.90;1.00
17703;DHT22;8970;48.104;-1.680;2022-07-19T01:26:49;29.90;1.00
17703;DHT22;8970;48.104;-1.680;2022-07-19T01:27:26;29.90;1.00
17703;DHT22;8970;48.104;-1.680;2022-07-19T01:28:05;29.90;1.00
17703;DHT22;8970;48.104;-1.680;2022-07-19T01:28:42;29.90;1.00
17703;DHT22;8970;48.104;-1.680;2022-07-19T01:29:19;29.90;1.00
17703;DHT22;8970;48.104;-1.680;2022-07-19T01:29:55;29.90;1.00
17703;DHT22;8970;48.104;-1.680;2022-07-19T01:30:33;29.80;1.00
17703;DHT22;8970;48.104;-1.680;2022-07-19T01:31:09;29.80;1.00
17703;DHT22;8970;48.104;-1.680;2022-07-19T01:31:47;29.90;1.00
17703;DHT22;8970;48.104;-1.680;2022-07-19T01:32:23;29.80;1.00
17703;DHT22;8970;48.104;-1.680;2022-07-19T01:33:44;29.80;1.00
17703;DHT22;8970;48.104;-1.680;2022-07-19T01:34:21;29.80;1.00
17703;DHT22;8970;48.104;-1.680;2022-07-19T01:34:59;29.80;1.00
17703;DHT22;8970;48.104;-1.680;2022-07-19T01:35:36;29.80;1.00
17703;DHT22;8970;48.104;-1.680;2022-07-19T01:36:12;29.80;1.00
17703;DHT22;8970;48.104;-1.680;2022-07-19T01:36:49;29.80;1.00
17703;DHT22;8970;48.104;-1.680;2022-07-19T01:37:26;29.80;1.00
17703;DHT22;8970;48.104;-1.680;2022-07-19T01:38:02;29.80;1.00
17703;DHT22;8970;48.104;-1.680;2022-07-19T01:38:41;29.80;1.00
17703;DHT22;8970;48.104;-1.680;2022-07-19T01:39:17;29.80;1.00
17703;DHT22;8970;48.104;-1.680;2022-07-19T01:39:54;29.70;1.00
17703;DHT22;8970;48.104;-1.680;2022-07-19T01:40:32;29.80;1.00
17703;DHT22;8970;48.104;-1.680;2022-07-19T01:41:09;29.80;1.00
17703;DHT22;8970;48.104;-1.680;2022-07-19T01:41:46;29.80;1.00
17703;DHT22;8970;48.104;-1.680;2022-07-19T01:42:23;29.70;1.00
17703;DHT22;8970;48.104;-1.680;2022-07-19T01:43:00;29.70;1.00
17703;DHT22;8970;48.104;-1.680;2022-07-19T01:43:36;29.80;1.00
17703;DHT22;8970;48.104;-1.680;2022-07-19T01:44:14;29.80;1.00
17703;DHT22;8970;48.104;-1.680;2022-07-19T01:44:51;29.80;1.00
17703;DHT22;8970;48.104;-1.680;2022-07-19T01:45:28;29.70;1.00
17703;DHT22;8970;48.104;-1.680;2022-07-19T01:46:46;29.70;1.00
17703;DHT22;8970;48.104;-1.680;2022-07-19T01:48:06;29.70;1.00
17703;DHT22;8970;48.104;-1.680;2022-07-19T01:48:42;29.70;1.00
17703;DHT22;8970;48.104;-1.680;2022-07-19T01:49:19;29.70;1.00
17703;DHT22;8970;48.104;-1.680;2022-07-19T01:49:55;29.70;1.00
17703;DHT22;8970;48.104;-1.680;2022-07-19T01:50:32;29.70;1.00
17703;DHT22;8970;48.104;-1.680;2022-07-19T01:51:09;29.70;1.00
17703;DHT22;8970;48.104;-1.680;2022-07-19T01:51:45;29.70;1.00
17703;DHT22;8970;48.104;-1.680;2022-07-19T01:52:22;29.70;1.00
17703;DHT22;8970;48.104;-1.680;2022-07-19T01:53:41;29.70;1.00
17703;DHT22;8970;48.104;-1.680;2022-07-19T01:54:18;29.70;1.00
17703;DHT22;8970;48.104;-1.680;2022-07-19T01:54:54;29.70;1.00
17703;DHT22;8970;48.104;-1.680;2022-07-19T01:55:31;29.70;1.00
17703;DHT22;8970;48.104;-1.680;2022-07-19T01:56:07;29.70;1.00
17703;DHT22;8970;48.104;-1.680;2022-07-19T01:56:44;29.70;1.00
17703;DHT22;8970;48.104;-1.680;2022-07-19T01:57:21;29.70;1.00
17703;DHT22;8970;48.104;-1.680;2022-07-19T01:57:57;29.60;1.00
17703;DHT22;8970;48.104;-1.680;2022-07-19T01:58:34;29.70;1.00
17703;DHT22;8970;48.104;-1.680;2022-07-19T01:59:11;29.70;1.00
17703;DHT22;8970;48.104;-1.680;2022-07-19T02:00:28;29.60;1.00
17703;DHT22;8970;48.104;-1.680;2022-07-19T02:01:05;29.70;1.00
17703;DHT22;8970;48.104;-1.680;2022-07-19T02:01:42;29.70;1.00
17703;DHT22;8970;48.104;-1.680;2022-07-19T02:02:18;29.60;1.00
17703;DHT22;8970;48.104;-1.680;2022-07-19T02:02:55;29.70;1.00
17703;DHT22;8970;48.104;-1.680;2022-07-19T02:03:32;29.60;1.00
17703;DHT22;8970;48.104;-1.680;2022-07-19T02:04:08;29.70;1.00
17703;DHT22;8970;48.104;-1.680;2022-07-19T02:04:45;29.60;1.00
17703;DHT22;8970;48.104;-1.680;2022-07-19T02:05:22;29.60;1.00
17703;DHT22;8970;48.104;-1.680;2022-07-19T02:06:39;29.60;1.00
17703;DHT22;8970;48.104;-1.680;2022-07-19T02:07:16;29.60;1.00
17703;DHT22;8970;48.104;-1.680;2022-07-19T02:07:52;29.60;1.00
17703;DHT22;8970;48.104;-1.680;2022-07-19T02:08:29;29.60;1.00
17703;DHT22;8970;48.104;-1.680;2022-07-19T02:09:06;29.60;1.00
17703;DHT22;8970;48.104;-1.680;2022-07-19T02:10:26;29.60;1.00
17703;DHT22;8970;48.104;-1.680;2022-07-19T02:11:03;29.60;1.00
17703;DHT22;8970;48.104;-1.680;2022-07-19T02:11:41;29.60;1.00
17703;DHT22;8970;48.104;-1.680;2022-07-19T02:13:00;29.60;1.00
17703;DHT22;8970;48.104;-1.680;2022-07-19T02:13:37;29.60;1.00
17703;DHT22;8970;48.104;-1.680;2022-07-19T02:14:13;29.60;1.00
17703;DHT22;8970;48.104;-1.680;2022-07-19T02:14:51;29.50;1.00
17703;DHT22;8970;48.104;-1.680;2022-07-19T02:15:27;29.50;1.00
17703;DHT22;8970;48.104;-1.680;2022-07-19T02:16:07;29.50;1.00
17703;DHT22;8970;48.104;-1.680;2022-07-19T02:16:43;29.50;1.00
17703;DHT22;8970;48.104;-1.680;2022-07-19T02:17:21;29.50;1.00
17703;DHT22;8970;48.104;-1.680;2022-07-19T02:17:57;29.50;1.00
17703;DHT22;8970;48.104;-1.680;2022-07-19T02:18:34;29.50;1.00
17703;DHT22;8970;48.104;-1.680;2022-07-19T02:19:11;29.50;1.00
17703;DHT22;8970;48.104;-1.680;2022-07-19T02:19:48;29.50;1.00
17703;DHT22;8970;48.104;-1.680;2022-07-19T02:21:05;29.50;1.00
17703;DHT22;8970;48.104;-1.680;2022-07-19T02:21:42;29.50;1.00
17703;DHT22;8970;48.104;-1.680;2022-07-19T02:22:21;29.50;1.00
17703;DHT22;8970;48.104;-1.680;2022-07-19T02:22:59;29.50;1.00
17703;DHT22;8970;48.104;-1.680;2022-07-19T02:23:36;29.50;1.00
17703;DHT22;8970;48.104;-1.680;2022-07-19T02:24:12;29.50;1.00
17703;DHT22;8970;48.104;-1.680;2022-07-19T02:24:49;29.50;1.00
17703;DHT22;8970;48.104;-1.680;2022-07-19T02:25:25;29.50;1.00
17703;DHT22;8970;48.104;-1.680;2022-07-19T02:26:02;29.40;1.00
17703;DHT22;8970;48.104;-1.680;2022-07-19T02:26:39;29.50;1.00
17703;DHT22;8970;48.104;-1.680;2022-07-19T02:27:15;29.50;1.00
17703;DHT22;8970;48.104;-1.680;2022-07-19T02:27:52;29.40;1.00
17703;DHT22;8970;48.104;-1.680;2022-07-19T02:28:28;29.50;1.00
17703;DHT22;8970;48.104;-1.680;2022-07-19T02:29:05;29.40;1.00
17703;DHT22;8970;48.104;-1.680;2022-07-19T02:29:42;29.40;1.00
17703;DHT22;8970;48.104;-1.680;2022-07-19T02:30:20;29.50;1.00
17703;DHT22;8970;48.104;-1.680;2022-07-19T02:30:56;29.50;1.00
17703;DHT22;8970;48.104;-1.680;2022-07-19T02:31:33;29.40;1.00
17703;DHT22;8970;48.104;-1.680;2022-07-19T02:32:10;29.40;1.00
17703;DHT22;8970;48.104;-1.680;2022-07-19T02:32:47;29.40;1.00
17703;DHT22;8970;48.104;-1.680;2022-07-19T02:33:23;29.40;1.00
17703;DHT22;8970;48.104;-1.680;2022-07-19T02:34:00;29.40;1.00
17703;DHT22;8970;48.104;-1.680;2022-07-19T02:34:37;29.40;1.00
17703;DHT22;8970;48.104;-1.680;2022-07-19T02:35:56;29.40;1.00
17703;DHT22;8970;48.104;-1.680;2022-07-19T02:36:32;29.40;1.00
17703;DHT22;8970;48.104;-1.680;2022-07-19T02:37:09;29.40;1.00
17703;DHT22;8970;48.104;-1.680;2022-07-19T02:37:45;29.40;1.00
17703;DHT22;8970;48.104;-1.680;2022-07-19T02:38:25;29.40;1.00
17703;DHT22;8970;48.104;-1.680;2022-07-19T02:39:02;29.40;1.00
17703;DHT22;8970;48.104;-1.680;2022-07-19T02:39:38;29.40;1.00
17703;DHT22;8970;48.104;-1.680;2022-07-19T02:40:15;29.40;1.00
17703;DHT22;8970;48.104;-1.680;2022-07-19T02:40:51;29.40;1.00
17703;DHT22;8970;48.104;-1.680;2022-07-19T02:41:28;29.40;1.00
17703;DHT22;8970;48.104;-1.680;2022-07-19T02:42:06;29.40;1.00
17703;DHT22;8970;48.104;-1.680;2022-07-19T02:42:43;29.30;1.00
17703;DHT22;8970;48.104;-1.680;2022-07-19T02:43:20;29.30;1.00
17703;DHT22;8970;48.104;-1.680;2022-07-19T02:43:57;29.30;1.00
17703;DHT22;8970;48.104;-1.680;2022-07-19T02:44:33;29.40;1.00
17703;DHT22;8970;48.104;-1.680;2022-07-19T02:45:10;29.40;1.00
17703;DHT22;8970;48.104;-1.680;2022-07-19T02:45:47;29.30;1.00
17703;DHT22;8970;48.104;-1.680;2022-07-19T02:47:07;29.30;1.00
17703;DHT22;8970;48.104;-1.680;2022-07-19T02:47:44;29.30;1.00
17703;DHT22;8970;48.104;-1.680;2022-07-19T02:48:22;29.30;1.00
17703;DHT22;8970;48.104;-1.680;2022-07-19T02:48:59;29.30;1.00
17703;DHT22;8970;48.104;-1.680;2022-07-19T02:49:35;29.30;1.00
17703;DHT22;8970;48.104;-1.680;2022-07-19T02:50:12;29.30;1.00
17703;DHT22;8970;48.104;-1.680;2022-07-19T02:51:32;29.20;1.00
17703;DHT22;8970;48.104;-1.680;2022-07-19T02:52:08;29.20;1.00
17703;DHT22;8970;48.104;-1.680;2022-07-19T02:52:45;29.20;1.00
17703;DHT22;8970;48.104;-1.680;2022-07-19T02:53:22;29.20;1.00
17703;DHT22;8970;48.104;-1.680;2022-07-19T02:53:58;29.20;1.00
17703;DHT22;8970;48.104;-1.680;2022-07-19T02:54:35;29.20;1.00
17703;DHT22;8970;48.104;-1.680;2022-07-19T02:55:11;29.20;1.00
17703;DHT22;8970;48.104;-1.680;2022-07-19T02:55:48;29.20;1.00
17703;DHT22;8970;48.104;-1.680;2022-07-19T02:56:25;29.20;1.00
17703;DHT22;8970;48.104;-1.680;2022-07-19T02:57:02;29.20;1.00
17703;DHT22;8970;48.104;-1.680;2022-07-19T02:57:39;29.20;1.00
17703;DHT22;8970;48.104;-1.680;2022-07-19T02:58:15;29.20;1.00
17703;DHT22;8970;48.104;-1.680;2022-07-19T02:58:52;29.20;1.00
17703;DHT22;8970;48.104;-1.680;2022-07-19T03:00:13;29.20;1.00
17703;DHT22;8970;48.104;-1.680;2022-07-19T03:00:49;29.10;1.00
17703;DHT22;8970;48.104;-1.680;2022-07-19T03:01:26;29.20;1.00
17703;DHT22;8970;48.104;-1.680;2022-07-19T03:02:46;29.20;1.00
17703;DHT22;8970;48.104;-1.680;2022-07-19T03:03:23;29.10;1.00
17703;DHT22;8970;48.104;-1.680;2022-07-19T03:04:17;29.10;1.00
17703;DHT22;8970;48.104;-1.680;2022-07-19T03:04:54;29.10;1.00
17703;DHT22;8970;48.104;-1.680;2022-07-19T03:05:31;29.10;1.00
17703;DHT22;8970;48.104;-1.680;2022-07-19T03:06:08;29.10;1.00
17703;DHT22;8970;48.104;-1.680;2022-07-19T03:06:44;29.10;1.00
17703;DHT22;8970;48.104;-1.680;2022-07-19T03:08:04;29.10;1.00
17703;DHT22;8970;48.104;-1.680;2022-07-19T03:08:41;29.10;1.00
17703;DHT22;8970;48.104;-1.680;2022-07-19T03:09:17;29.10;1.00
17703;DHT22;8970;48.104;-1.680;2022-07-19T03:10:36;29.10;1.00
17703;DHT22;8970;48.104;-1.680;2022-07-19T03:11:13;29.10;1.00
17703;DHT22;8970;48.104;-1.680;2022-07-19T03:11:51;29.00;1.00
17703;DHT22;8970;48.104;-1.680;2022-07-19T03:12:28;29.00;1.00
17703;DHT22;8970;48.104;-1.680;2022-07-19T03:13:05;29.00;1.00
17703;DHT22;8970;48.104;-1.680;2022-07-19T03:13:42;29.10;1.00
17703;DHT22;8970;48.104;-1.680;2022-07-19T03:14:18;29.10;1.00
17703;DHT22;8970;48.104;-1.680;2022-07-19T03:14:55;29.00;1.00
17703;DHT22;8970;48.104;-1.680;2022-07-19T03:15:32;29.00;1.00
17703;DHT22;8970;48.104;-1.680;2022-07-19T03:16:09;29.00;1.00
17703;DHT22;8970;48.104;-1.680;2022-07-19T03:17:28;29.00;1.00
17703;DHT22;8970;48.104;-1.680;2022-07-19T03:18:05;28.90;1.00
17703;DHT22;8970;48.104;-1.680;2022-07-19T03:18:44;29.00;1.00
17703;DHT22;8970;48.104;-1.680;2022-07-19T03:19:21;29.00;1.00
17703;DHT22;8970;48.104;-1.680;2022-07-19T03:20:01;28.90;1.00
17703;DHT22;8970;48.104;-1.680;2022-07-19T03:20:37;28.90;1.00
17703;DHT22;8970;48.104;-1.680;2022-07-19T03:21:14;28.90;1.00
17703;DHT22;8970;48.104;-1.680;2022-07-19T03:21:51;28.90;1.00
17703;DHT22;8970;48.104;-1.680;2022-07-19T03:22:27;28.90;1.00
17703;DHT22;8970;48.104;-1.680;2022-07-19T03:23:05;28.90;1.00
17703;DHT22;8970;48.104;-1.680;2022-07-19T03:23:42;28.90;1.00
17703;DHT22;8970;48.104;-1.680;2022-07-19T03:24:18;28.90;1.00
17703;DHT22;8970;48.104;-1.680;2022-07-19T03:24:55;28.90;1.00
17703;DHT22;8970;48.104;-1.680;2022-07-19T03:25:32;28.80;1.00
17703;DHT22;8970;48.104;-1.680;2022-07-19T03:26:08;28.80;1.00
17703;DHT22;8970;48.104;-1.680;2022-07-19T03:26:45;28.90;1.00
17703;DHT22;8970;48.104;-1.680;2022-07-19T03:27:22;28.90;1.00
17703;DHT22;8970;48.104;-1.680;2022-07-19T03:27:58;28.80;1.00
17703;DHT22;8970;48.104;-1.680;2022-07-19T03:28:35;28.90;1.00
17703;DHT22;8970;48.104;-1.680;2022-07-19T03:29:12;28.80;1.00
17703;DHT22;8970;48.104;-1.680;2022-07-19T03:29:49;28.80;1.00
17703;DHT22;8970;48.104;-1.680;2022-07-19T03:30:25;28.80;1.00
17703;DHT22;8970;48.104;-1.680;2022-07-19T03:31:02;28.80;1.00
17703;DHT22;8970;48.104;-1.680;2022-07-19T03:31:40;28.80;1.00
17703;DHT22;8970;48.104;-1.680;2022-07-19T03:32:16;28.80;1.00
17703;DHT22;8970;48.104;-1.680;2022-07-19T03:32:53;28.80;1.00
17703;DHT22;8970;48.104;-1.680;2022-07-19T03:33:30;28.80;1.00
17703;DHT22;8970;48.104;-1.680;2022-07-19T03:34:49;28.80;1.00
17703;DHT22;8970;48.104;-1.680;2022-07-19T03:35:25;28.80;1.00
17703;DHT22;8970;48.104;-1.680;2022-07-19T03:36:02;28.80;1.00
17703;DHT22;8970;48.104;-1.680;2022-07-19T03:36:40;28.80;1.00
17703;DHT22;8970;48.104;-1.680;2022-07-19T03:37:16;28.80;1.00
17703;DHT22;8970;48.104;-1.680;2022-07-19T03:37:53;28.80;1.00
17703;DHT22;8970;48.104;-1.680;2022-07-19T03:38:30;28.80;1.00
17703;DHT22;8970;48.104;-1.680;2022-07-19T03:39:06;28.80;1.00
17703;DHT22;8970;48.104;-1.680;2022-07-19T03:39:43;28.70;1.00
17703;DHT22;8970;48.104;-1.680;2022-07-19T03:40:20;28.70;1.00
17703;DHT22;8970;48.104;-1.680;2022-07-19T03:41:41;28.70;1.00
17703;DHT22;8970;48.104;-1.680;2022-07-19T03:42:17;28.70;1.00
17703;DHT22;8970;48.104;-1.680;2022-07-19T03:42:54;28.70;1.00
17703;DHT22;8970;48.104;-1.680;2022-07-19T03:43:31;28.60;1.00
17703;DHT22;8970;48.104;-1.680;2022-07-19T03:44:07;28.60;1.00
17703;DHT22;8970;48.104;-1.680;2022-07-19T03:44:44;28.60;1.00
17703;DHT22;8970;48.104;-1.680;2022-07-19T03:45:20;28.60;1.00
17703;DHT22;8970;48.104;-1.680;2022-07-19T03:46:39;28.60;1.00
17703;DHT22;8970;48.104;-1.680;2022-07-19T03:47:57;28.60;1.00
17703;DHT22;8970;48.104;-1.680;2022-07-19T03:48:33;28.60;1.00
17703;DHT22;8970;48.104;-1.680;2022-07-19T03:49:10;28.60;1.00
17703;DHT22;8970;48.104;-1.680;2022-07-19T03:49:47;28.60;1.00
17703;DHT22;8970;48.104;-1.680;2022-07-19T03:51:05;28.60;1.00
17703;DHT22;8970;48.104;-1.680;2022-07-19T03:51:41;28.60;1.00
17703;DHT22;8970;48.104;-1.680;2022-07-19T03:52:18;28.60;1.00
17703;DHT22;8970;48.104;-1.680;2022-07-19T03:52:55;28.60;1.00
17703;DHT22;8970;48.104;-1.680;2022-07-19T03:53:31;28.60;1.00
17703;DHT22;8970;48.104;-1.680;2022-07-19T03:54:09;28.60;1.00
17703;DHT22;8970;48.104;-1.680;2022-07-19T03:54:46;28.50;1.00
17703;DHT22;8970;48.104;-1.680;2022-07-19T03:55:23;28.60;1.00
17703;DHT22;8970;48.104;-1.680;2022-07-19T03:56:00;28.50;1.00
17703;DHT22;8970;48.104;-1.680;2022-07-19T03:56:36;28.50;1.00
17703;DHT22;8970;48.104;-1.680;2022-07-19T03:57:13;28.50;1.00
17703;DHT22;8970;48.104;-1.680;2022-07-19T03:57:49;28.50;1.00
17703;DHT22;8970;48.104;-1.680;2022-07-19T03:59:10;28.50;1.00
17703;DHT22;8970;48.104;-1.680;2022-07-19T03:59:47;28.40;1.00
17703;DHT22;8970;48.104;-1.680;2022-07-19T04:00:24;28.50;1.00
17703;DHT22;8970;48.104;-1.680;2022-07-19T04:01:01;28.50;1.00
17703;DHT22;8970;48.104;-1.680;2022-07-19T04:01:37;28.50;1.00
17703;DHT22;8970;48.104;-1.680;2022-07-19T04:02:56;28.50;1.00
17703;DHT22;8970;48.104;-1.680;2022-07-19T04:03:36;28.50;1.00
17703;DHT22;8970;48.104;-1.680;2022-07-19T04:04:13;28.40;1.00
17703;DHT22;8970;48.104;-1.680;2022-07-19T04:04:50;28.40;1.00
17703;DHT22;8970;48.104;-1.680;2022-07-19T04:05:26;28.40;1.00
17703;DHT22;8970;48.104;-1.680;2022-07-19T04:06:44;28.40;1.00
17703;DHT22;8970;48.104;-1.680;2022-07-19T04:07:21;28.40;1.00
17703;DHT22;8970;48.104;-1.680;2022-07-19T04:07:58;28.40;1.00
17703;DHT22;8970;48.104;-1.680;2022-07-19T04:08:37;28.40;1.00
17703;DHT22;8970;48.104;-1.680;2022-07-19T04:09:13;28.40;1.00
17703;DHT22;8970;48.104;-1.680;2022-07-19T04:09:50;28.40;1.00
17703;DHT22;8970;48.104;-1.680;2022-07-19T04:10:27;28.30;1.00
17703;DHT22;8970;48.104;-1.680;2022-07-19T04:11:05;28.30;1.00
17703;DHT22;8970;48.104;-1.680;2022-07-19T04:11:41;28.30;1.00
17703;DHT22;8970;48.104;-1.680;2022-07-19T04:12:18;28.30;1.00
17703;DHT22;8970;48.104;-1.680;2022-07-19T04:12:55;28.30;1.00
17703;DHT22;8970;48.104;-1.680;2022-07-19T04:13:34;28.30;1.00
17703;DHT22;8970;48.104;-1.680;2022-07-19T04:14:11;28.30;1.00
17703;DHT22;8970;48.104;-1.680;2022-07-19T04:14:47;28.30;1.00
17703;DHT22;8970;48.104;-1.680;2022-07-19T04:15:24;28.30;1.00
17703;DHT22;8970;48.104;-1.680;2022-07-19T04:16:01;28.30;1.00
17703;DHT22;8970;48.104;-1.680;2022-07-19T04:16:38;28.30;1.00
17703;DHT22;8970;48.104;-1.680;2022-07-19T04:17:14;28.30;1.00
17703;DHT22;8970;48.104;-1.680;2022-07-19T04:17:52;28.30;1.00
17703;DHT22;8970;48.104;-1.680;2022-07-19T04:18:29;28.30;1.00
17703;DHT22;8970;48.104;-1.680;2022-07-19T04:19:05;28.20;1.00
17703;DHT22;8970;48.104;-1.680;2022-07-19T04:19:42;28.20;1.00
17703;DHT22;8970;48.104;-1.680;2022-07-19T04:20:19;28.20;1.00
17703;DHT22;8970;48.104;-1.680;2022-07-19T04:21:38;28.20;1.00
17703;DHT22;8970;48.104;-1.680;2022-07-19T04:22:14;28.20;1.00
17703;DHT22;8970;48.104;-1.680;2022-07-19T04:22:52;28.20;1.00
17703;DHT22;8970;48.104;-1.680;2022-07-19T04:23:29;28.20;1.00